Pagrindinis puslapis
METAR-TAF:

METAR-TAF

Oro uostai :

Halmstadas, Švedija

platuma: 56-41N, ilguma: 012-50E, Aukštis: 30 m

Dabartinis oras

Ataskaita buvo paskelbta 15 minutes, ne 18:50 UTC
Vėjas 5 kt iš Pietryčių
Temperatūra 17°C
Drėgmė 72%
Slėgis 1001 hPa
Matomumas 10 km arba daugiau

METAR: ESMT 231850Z AUTO 13005KT 9999 FEW074/// 17/12 Q1001

Laikas: 21:05 (19:05 UTC)

Prognozė

Ataskaita buvo paskelbta 5 valandos ir 3 minutes, ne 14:02 UTC
Prognozė galioja nuo 23 metu 15 UTC su 23 metu 18 UTC
Vėjas 8 kt iš Pietų
Matomumas 10 km arba daugiau
nėra debesų žemiau 1500 m ir nėra kamuolinių lietaus debesų

TAF: ESMT 231402Z 2315/2318 19008KT CAVOK

Orai ataskaitas ir orų prognozės (METAR, TAF).

turimą stotys yra geltonos ir raudonos taškus žemėlapyje.

Perkelti pele per norėdami pamatyti stoties vardą.

Tada spustelėkite, norėdami matyti oro stebėjimo ir prognozės.

Norėdami pakeisti žemėlapį: spustelėkite ant žalios mygtukų su juodo kryžiaus žemyn,; žalią mygtuką su brūkšneliu, jei norite nutolinti; arba žalių rodyklių gretimoms žemėlapius.


METAR-TAF: